Terminal Aerodrome Forecast
Issued by NWS

Home | Current Version | Previous Version | Text Only | Print | Product List | Glossary On
Versions: 1 2 3 4 5 6 7 8 9 10 11 12 13 14 15
000
FTAK31 PANC 181145
TAFADL
TAF
PADL 181145Z 1812/1912 32005KT P6SM SKC
     FM181900 06005KT P6SM SCT025 OVC035
     FM182200 09008KT 2SM -SN BR SCT005 OVC015
     FM190400 09008KT 3SM -RASN BR SCT005 BKN015 OVC025
     FM190900 24008KT 2SM -SN BR BKN008 OVC015=

USA.gov is the U.S. government's official web portal to all federal, state and local government web resources and services.